createdAt,value
2023-04-09T00:00:43.435Z,21.00
2023-04-09T00:03:10.452Z,21.10
2023-04-09T00:05:41.415Z,20.77
2023-04-09T00:08:08.612Z,20.48
2023-04-09T00:10:35.715Z,21.48
2023-04-09T00:13:03.052Z,21.25
2023-04-09T00:15:31.685Z,22.23
2023-04-09T00:17:59.566Z,21.73
2023-04-09T00:20:26.627Z,22.75
2023-04-09T00:22:54.108Z,23.42
2023-04-09T00:25:21.202Z,22.77
2023-04-09T00:27:48.008Z,23.15
2023-04-09T00:30:14.997Z,23.20
2023-04-09T00:32:42.241Z,22.88
2023-04-09T00:35:09.450Z,24.88
2023-04-09T00:37:36.245Z,24.08
2023-04-09T00:40:03.744Z,23.88
2023-04-09T00:42:35.065Z,23.48
2023-04-09T00:45:01.962Z,24.45
2023-04-09T00:47:31.027Z,24.85
2023-04-09T00:49:58.228Z,24.85
2023-04-09T00:52:25.768Z,24.45
2023-04-09T00:54:53.200Z,24.85
2023-04-09T00:57:20.484Z,24.98
2023-04-09T00:59:47.405Z,24.73
2023-04-09T01:02:14.306Z,24.65
2023-04-09T01:04:43.130Z,25.00
2023-04-09T01:07:54.216Z,24.50
2023-04-09T01:10:43.173Z,24.60
2023-04-09T01:13:23.015Z,25.52
2023-04-09T01:15:56.983Z,23.80
2023-04-09T01:18:33.090Z,26.38
2023-04-09T01:21:07.008Z,25.80
2023-04-09T01:23:42.969Z,25.88
2023-04-09T01:26:34.305Z,27.38
2023-04-09T01:29:02.852Z,26.30
2023-04-09T01:31:36.664Z,27.80
2023-04-09T01:34:05.333Z,28.38
2023-04-09T01:36:33.330Z,27.92
2023-04-09T01:39:03.788Z,26.90
2023-04-09T01:41:32.745Z,27.80
2023-04-09T01:44:02.136Z,27.98
2023-04-09T01:46:30.190Z,29.08
2023-04-09T01:48:57.575Z,29.45
2023-04-09T01:51:24.916Z,28.85
2023-04-09T01:53:51.742Z,29.63
2023-04-09T01:56:18.565Z,28.40
2023-04-09T01:58:45.600Z,27.65
2023-04-09T02:01:28.447Z,29.00
2023-04-09T02:04:00.511Z,28.25
2023-04-09T02:06:51.020Z,30.35
2023-04-09T02:09:20.443Z,28.73
2023-04-09T02:11:53.141Z,29.23
2023-04-09T02:14:22.527Z,29.52
2023-04-09T02:16:49.585Z,30.65
2023-04-09T02:19:16.538Z,31.42
2023-04-09T02:21:44.577Z,30.67
2023-04-09T02:24:11.404Z,31.05
2023-04-09T02:26:38.264Z,31.70
2023-04-09T02:29:05.212Z,32.00
2023-04-09T02:31:32.017Z,30.13
2023-04-09T02:33:58.896Z,30.90
2023-04-09T02:36:26.623Z,30.00
2023-04-09T02:38:53.665Z,29.52
2023-04-09T02:41:21.176Z,30.00
2023-04-09T02:43:48.152Z,32.67
2023-04-09T02:46:14.958Z,31.23
2023-04-09T02:48:41.782Z,30.23
2023-04-09T02:51:08.791Z,31.13
2023-04-09T02:53:37.687Z,30.95
2023-04-09T02:56:04.936Z,30.80
2023-04-09T02:58:31.883Z,32.42
2023-04-09T03:00:58.692Z,32.15
2023-04-09T03:03:25.989Z,33.30
2023-04-09T03:05:53.000Z,33.55
2023-04-09T03:08:19.824Z,33.47
2023-04-09T03:10:46.757Z,33.42
2023-04-09T03:13:13.708Z,33.53
2023-04-09T03:15:41.242Z,36.10
2023-04-09T03:18:08.083Z,34.03
2023-04-09T03:20:38.531Z,36.97
2023-04-09T03:23:05.452Z,36.50
2023-04-09T03:25:32.254Z,37.58
2023-04-09T03:27:59.129Z,36.90
2023-04-09T03:30:26.013Z,37.08
2023-04-09T03:32:52.908Z,37.88
2023-04-09T03:35:19.824Z,37.88
2023-04-09T03:37:46.791Z,37.88
2023-04-09T03:40:14.125Z,37.38
2023-04-09T03:42:43.324Z,38.35
2023-04-09T03:45:10.451Z,36.42
2023-04-09T03:47:37.296Z,37.83
2023-04-09T03:50:04.330Z,37.60
2023-04-09T03:52:31.202Z,37.38
2023-04-09T03:54:57.991Z,37.63
2023-04-09T03:57:24.964Z,37.20
2023-04-09T03:59:51.802Z,38.78
2023-04-09T04:02:18.700Z,37.17
2023-04-09T04:04:46.428Z,36.83
2023-04-09T04:07:13.448Z,36.30
2023-04-09T04:09:40.364Z,37.25
2023-04-09T04:12:07.336Z,37.08
2023-04-09T04:14:37.267Z,37.80
2023-04-09T04:17:04.070Z,37.47
2023-04-09T04:19:31.193Z,37.67
2023-04-09T04:21:57.925Z,40.13
2023-04-09T04:24:24.787Z,39.42
2023-04-09T04:26:51.697Z,38.97
2023-04-09T04:29:18.587Z,39.55
2023-04-09T04:31:45.594Z,39.47
2023-04-09T04:34:12.507Z,38.08
2023-04-09T04:36:39.523Z,38.50
2023-04-09T04:39:06.310Z,37.58
2023-04-09T04:41:33.171Z,37.47
2023-04-09T04:44:00.206Z,38.67
2023-04-09T04:46:27.064Z,39.35
2023-04-09T04:48:54.125Z,38.75
2023-04-09T04:51:22.938Z,38.40
2023-04-09T04:53:49.823Z,38.75
2023-04-09T04:56:16.880Z,38.17
2023-04-09T04:58:44.206Z,38.30
2023-04-09T05:01:11.391Z,36.53
2023-04-09T05:03:38.308Z,38.20
2023-04-09T05:06:05.407Z,40.50
2023-04-09T05:08:32.180Z,39.50
2023-04-09T05:10:58.964Z,39.53
2023-04-09T05:13:26.007Z,40.60
2023-04-09T05:15:52.915Z,40.58
2023-04-09T05:18:20.038Z,39.38
2023-04-09T05:20:46.925Z,40.53
2023-04-09T05:23:13.766Z,40.40
2023-04-09T05:25:40.917Z,40.25
2023-04-09T05:28:07.744Z,41.03
2023-04-09T05:30:34.738Z,38.55
2023-04-09T05:33:01.673Z,39.00
2023-04-09T05:35:28.595Z,40.97
2023-04-09T05:37:55.665Z,39.28
2023-04-09T05:40:22.620Z,39.47
2023-04-09T05:42:49.436Z,40.92
2023-04-09T05:45:16.465Z,40.28
2023-04-09T05:47:43.292Z,41.88
2023-04-09T05:50:10.515Z,39.03
2023-04-09T05:52:37.629Z,38.88
2023-04-09T05:55:05.489Z,40.65
2023-04-09T05:57:32.740Z,41.75
2023-04-09T05:59:59.616Z,39.13
2023-04-09T06:02:26.754Z,40.15
2023-04-09T06:04:53.770Z,39.42
2023-04-09T06:07:21.159Z,41.00
2023-04-09T06:09:48.226Z,39.78
2023-04-09T06:12:15.814Z,40.60
2023-04-09T06:14:44.782Z,39.45
2023-04-09T06:17:11.580Z,39.88
2023-04-09T06:19:38.461Z,40.50
2023-04-09T06:22:05.465Z,40.42
2023-04-09T06:24:33.325Z,40.38
2023-04-09T06:27:00.516Z,40.10
2023-04-09T06:29:27.374Z,39.28
2023-04-09T06:31:54.250Z,38.92
2023-04-09T06:34:21.140Z,40.55
2023-04-09T06:36:48.040Z,38.85
2023-04-09T06:39:14.843Z,38.97
2023-04-09T06:41:41.891Z,40.85
2023-04-09T06:44:08.771Z,39.85
2023-04-09T06:46:35.737Z,40.30
2023-04-09T06:49:02.555Z,39.95
2023-04-09T06:51:29.441Z,41.22
2023-04-09T06:53:56.464Z,39.58
2023-04-09T06:56:23.316Z,40.40
2023-04-09T06:58:50.132Z,39.35
2023-04-09T07:01:17.479Z,38.58
2023-04-09T07:03:44.698Z,39.88
2023-04-09T07:06:11.617Z,40.13
2023-04-09T07:08:38.548Z,38.03
2023-04-09T07:11:05.384Z,37.88
2023-04-09T07:13:33.166Z,39.42
2023-04-09T07:16:00.608Z,39.75
2023-04-09T07:18:27.485Z,38.85
2023-04-09T07:20:55.282Z,37.67
2023-04-09T07:23:22.926Z,37.95
2023-04-09T07:25:49.728Z,39.40
2023-04-09T07:28:16.652Z,39.67
2023-04-09T07:30:43.461Z,37.95
2023-04-09T07:33:13.077Z,39.85
2023-04-09T07:35:40.031Z,39.80
2023-04-09T07:38:07.239Z,38.60
2023-04-09T07:40:34.922Z,39.17
2023-04-09T07:43:01.716Z,38.47
2023-04-09T07:45:28.578Z,40.05
2023-04-09T07:47:55.501Z,37.58
2023-04-09T07:50:22.644Z,38.35
2023-04-09T07:52:49.523Z,37.78
2023-04-09T07:55:18.450Z,37.10
2023-04-09T07:57:45.353Z,38.67
2023-04-09T08:00:12.814Z,37.88
2023-04-09T08:02:41.263Z,37.65
2023-04-09T08:05:08.984Z,37.88
2023-04-09T08:07:37.130Z,36.88
2023-04-09T08:10:04.861Z,37.42
2023-04-09T08:12:31.707Z,36.22
2023-04-09T08:14:58.778Z,35.92
2023-04-09T08:17:25.765Z,38.20
2023-04-09T08:19:53.099Z,37.53
2023-04-09T08:22:19.902Z,36.30
2023-04-09T08:24:51.987Z,35.38
2023-04-09T08:27:19.296Z,37.03
2023-04-09T08:29:46.153Z,34.85
2023-04-09T08:32:13.063Z,34.30
2023-04-09T08:34:40.059Z,34.50
2023-04-09T08:37:07.065Z,33.30
2023-04-09T08:39:34.305Z,33.78
2023-04-09T08:42:01.856Z,34.65
2023-04-09T08:44:29.696Z,34.65
2023-04-09T08:46:58.474Z,32.08
2023-04-09T08:49:26.463Z,32.85
2023-04-09T08:51:53.399Z,35.70
2023-04-09T08:54:20.454Z,33.55
2023-04-09T08:56:47.883Z,37.10
2023-04-09T08:59:21.269Z,34.58
2023-04-09T09:01:54.115Z,33.88
2023-04-09T09:04:21.277Z,31.90
2023-04-09T09:06:48.130Z,33.40
2023-04-09T09:09:16.669Z,34.17
2023-04-09T09:11:48.621Z,34.58
2023-04-09T09:14:17.496Z,35.75
2023-04-09T09:16:56.677Z,34.28
2023-04-09T09:19:26.810Z,33.00
2023-04-09T09:22:02.591Z,31.85
2023-04-09T09:24:29.570Z,33.28
2023-04-09T09:26:57.495Z,32.20
2023-04-09T09:29:25.290Z,34.58
2023-04-09T09:31:53.995Z,34.38
2023-04-09T09:34:22.425Z,32.83
2023-04-09T09:36:49.617Z,32.78
2023-04-09T09:39:17.776Z,32.67
2023-04-09T09:41:46.006Z,33.13
2023-04-09T09:44:30.687Z,32.42
2023-04-09T09:46:58.719Z,32.22
2023-04-09T09:49:25.577Z,32.25
2023-04-09T09:51:56.085Z,31.48
2023-04-09T09:54:25.541Z,30.67
2023-04-09T09:56:55.955Z,30.23
2023-04-09T09:59:32.221Z,30.92
2023-04-09T10:02:05.983Z,30.20
2023-04-09T10:04:36.762Z,28.30
2023-04-09T10:07:05.914Z,29.20
2023-04-09T10:09:35.959Z,27.52
2023-04-09T10:12:05.021Z,27.45
2023-04-09T10:14:32.021Z,22.42
2023-04-09T10:16:59.003Z,23.45
2023-04-09T10:19:25.985Z,25.02
2023-04-09T10:22:01.651Z,24.50
2023-04-09T10:24:28.565Z,24.67
2023-04-09T10:26:56.019Z,24.48
2023-04-09T10:29:29.245Z,26.20
2023-04-09T10:32:07.272Z,23.90
2023-04-09T10:34:42.478Z,22.88
2023-04-09T10:37:30.941Z,21.30
2023-04-09T10:39:58.813Z,22.52
2023-04-09T10:42:40.309Z,23.33
2023-04-09T10:45:14.723Z,23.00
2023-04-09T10:47:43.604Z,23.00
2023-04-09T10:50:18.140Z,22.63
2023-04-09T10:52:45.418Z,21.80
2023-04-09T10:55:38.463Z,21.75
2023-04-09T10:58:07.197Z,18.38
2023-04-09T11:00:43.503Z,21.45
2023-04-09T11:03:25.029Z,21.05
2023-04-09T11:05:52.787Z,20.60
2023-04-09T11:08:19.907Z,22.23
2023-04-09T11:10:51.944Z,22.13
2023-04-09T11:13:20.954Z,20.52
2023-04-09T11:15:47.809Z,20.80
2023-04-09T11:18:16.142Z,20.83
2023-04-09T11:20:43.364Z,22.52
2023-04-09T11:23:12.118Z,22.35
2023-04-09T11:25:39.021Z,22.23
2023-04-09T11:28:08.157Z,20.95
2023-04-09T11:30:36.168Z,20.20
2023-04-09T11:33:03.230Z,18.33
2023-04-09T11:35:30.400Z,19.35
2023-04-09T11:37:57.306Z,19.92
2023-04-09T11:40:25.917Z,19.48
2023-04-09T11:42:54.814Z,21.25
2023-04-09T11:45:27.271Z,20.65
2023-04-09T11:47:55.009Z,19.05
2023-04-09T11:50:22.561Z,19.50
2023-04-09T11:52:52.866Z,17.17
2023-04-09T11:55:24.520Z,19.80
2023-04-09T11:57:53.713Z,18.90
2023-04-09T12:00:21.287Z,18.45
2023-04-09T12:02:49.751Z,18.40
2023-04-09T12:05:24.816Z,18.67
2023-04-09T12:10:30.722Z,18.88
2023-04-09T12:13:07.330Z,20.30
2023-04-09T12:15:37.018Z,20.58
2023-04-09T12:18:07.799Z,19.27
2023-04-09T12:20:37.703Z,19.20
2023-04-09T12:23:05.997Z,18.73
2023-04-09T12:25:43.680Z,20.10
2023-04-09T12:28:13.770Z,20.45
2023-04-09T12:30:41.018Z,18.88
2023-04-09T12:33:10.799Z,18.50
2023-04-09T12:35:38.644Z,18.50
2023-04-09T12:38:05.984Z,16.33
2023-04-09T12:40:33.046Z,15.93
2023-04-09T12:42:59.970Z,15.40
2023-04-09T12:45:28.058Z,15.65
2023-04-09T12:47:55.477Z,15.27
2023-04-09T12:50:22.503Z,15.07
2023-04-09T12:52:49.608Z,13.93
2023-04-09T12:55:17.023Z,14.98
2023-04-09T12:57:47.060Z,13.65
2023-04-09T13:00:14.781Z,13.32
2023-04-09T13:02:41.787Z,15.20
2023-04-09T13:05:09.026Z,13.90
2023-04-09T13:07:35.846Z,12.60
2023-04-09T13:10:02.690Z,12.52
2023-04-09T13:12:30.301Z,13.20
2023-04-09T13:14:57.470Z,12.13
2023-04-09T13:17:24.388Z,12.98
2023-04-09T13:19:51.883Z,13.70
2023-04-09T13:22:19.157Z,13.07
2023-04-09T13:24:46.074Z,13.07
2023-04-09T13:27:13.356Z,12.38
2023-04-09T13:29:40.652Z,12.02
2023-04-09T13:32:07.760Z,13.18
2023-04-09T13:34:35.688Z,13.18
2023-04-09T13:37:05.712Z,12.25
2023-04-09T13:39:33.093Z,13.50
2023-04-09T13:42:01.363Z,12.88
2023-04-09T13:44:29.120Z,13.52
2023-04-09T13:46:56.043Z,13.13
2023-04-09T13:49:22.907Z,13.63
2023-04-09T13:51:51.126Z,12.20
2023-04-09T13:54:18.056Z,12.30
2023-04-09T13:56:46.152Z,11.23
2023-04-09T13:59:13.096Z,12.30
2023-04-09T14:01:40.105Z,11.77
2023-04-09T14:04:07.461Z,11.05
2023-04-09T14:06:34.446Z,11.43
2023-04-09T14:09:01.903Z,11.45
2023-04-09T14:11:28.941Z,11.10
2023-04-09T14:13:56.014Z,11.25
2023-04-09T14:16:23.720Z,10.07
2023-04-09T14:18:50.875Z,9.40
2023-04-09T14:21:18.475Z,9.55
2023-04-09T14:23:45.726Z,10.55
2023-04-09T14:26:12.557Z,10.55
2023-04-09T14:28:39.455Z,10.88
2023-04-09T14:31:06.828Z,11.95
2023-04-09T14:33:33.792Z,10.30
2023-04-09T14:36:00.922Z,10.80
2023-04-09T14:38:27.863Z,11.57
2023-04-09T14:40:54.702Z,11.02
2023-04-09T14:43:21.564Z,10.45
2023-04-09T14:48:26.934Z,11.95
2023-04-09T14:50:53.878Z,11.00
2023-04-09T14:53:20.811Z,10.60
2023-04-09T14:55:47.667Z,11.48
2023-04-09T14:58:14.514Z,10.20
2023-04-09T15:00:41.383Z,10.00
2023-04-09T15:03:08.410Z,9.75
2023-04-09T15:05:35.654Z,11.00
2023-04-09T15:08:02.599Z,9.85
2023-04-09T15:10:29.400Z,9.82
2023-04-09T15:12:56.324Z,10.80
2023-04-09T15:15:23.480Z,10.90
2023-04-09T15:17:50.971Z,10.10
2023-04-09T15:20:18.429Z,10.90
2023-04-09T15:22:45.382Z,10.43
2023-04-09T15:25:14.232Z,10.63
2023-04-09T15:27:41.320Z,9.82
2023-04-09T15:30:08.722Z,10.50
2023-04-09T15:32:35.683Z,10.15
2023-04-09T15:35:02.494Z,11.50
2023-04-09T15:37:29.355Z,10.20
2023-04-09T15:39:56.722Z,9.38
2023-04-09T15:42:23.549Z,10.32
2023-04-09T15:44:51.010Z,10.15
2023-04-09T15:47:18.182Z,10.30
2023-04-09T15:49:45.028Z,9.07
2023-04-09T15:52:11.813Z,9.38
2023-04-09T15:54:38.711Z,9.02
2023-04-09T15:57:05.594Z,9.52
2023-04-09T15:59:32.459Z,9.18
2023-04-09T16:01:59.478Z,8.90
2023-04-09T16:04:27.490Z,9.48
2023-04-09T16:06:56.350Z,8.90
2023-04-09T16:09:24.458Z,8.73
2023-04-09T16:11:51.665Z,9.00
2023-04-09T16:14:18.619Z,8.40
2023-04-09T16:16:49.743Z,8.57
2023-04-09T16:19:20.413Z,8.27
2023-04-09T16:21:47.744Z,8.50
2023-04-09T16:24:15.506Z,8.07
2023-04-09T16:26:43.772Z,7.60
2023-04-09T16:29:11.216Z,7.45
2023-04-09T16:31:39.359Z,7.80
2023-04-09T16:34:06.366Z,7.45
2023-04-09T16:36:36.911Z,6.90
2023-04-09T16:39:07.196Z,7.10
2023-04-09T16:41:36.417Z,7.20
2023-04-09T16:44:04.031Z,6.88
2023-04-09T16:46:31.281Z,6.95
2023-04-09T16:48:58.214Z,6.72
2023-04-09T16:51:25.100Z,6.38
2023-04-09T16:53:51.949Z,5.65
2023-04-09T16:56:18.893Z,5.90
2023-04-09T16:58:46.581Z,5.63
2023-04-09T17:01:13.461Z,5.75
2023-04-09T17:03:40.445Z,6.05
2023-04-09T17:06:07.328Z,6.13
2023-04-09T17:08:35.314Z,5.70
2023-04-09T17:11:03.992Z,6.05
2023-04-09T17:13:32.523Z,5.43
2023-04-09T17:15:59.336Z,5.15
2023-04-09T17:18:26.473Z,6.00
2023-04-09T17:20:53.502Z,5.82
2023-04-09T17:23:21.752Z,5.75
2023-04-09T17:25:48.990Z,5.65
2023-04-09T17:28:16.982Z,5.88
2023-04-09T17:30:45.764Z,5.30
2023-04-09T17:33:12.736Z,5.65
2023-04-09T17:35:39.690Z,5.85
2023-04-09T17:38:06.778Z,5.72
2023-04-09T17:40:33.752Z,5.95
2023-04-09T17:43:00.911Z,5.15
2023-04-09T17:45:27.869Z,5.63
2023-04-09T17:47:55.426Z,5.75
2023-04-09T17:50:22.415Z,5.78
2023-04-09T17:52:49.387Z,5.60
2023-04-09T17:55:17.354Z,5.80
2023-04-09T17:57:44.306Z,5.07
2023-04-09T18:00:11.602Z,6.38
2023-04-09T18:02:38.737Z,5.22
2023-04-09T18:05:06.296Z,5.78
2023-04-09T18:07:34.094Z,5.20
2023-04-09T18:10:05.514Z,5.85
2023-04-09T18:12:32.893Z,5.30
2023-04-09T18:15:00.062Z,5.47
2023-04-09T18:17:27.011Z,5.55
2023-04-09T18:19:54.792Z,5.25
2023-04-09T18:22:21.950Z,5.75
2023-04-09T18:24:48.749Z,5.68
2023-04-09T18:27:16.333Z,5.70
2023-04-09T18:29:43.244Z,6.32
2023-04-09T18:32:10.123Z,6.18
2023-04-09T18:34:38.133Z,5.55
2023-04-09T18:37:04.974Z,6.10
2023-04-09T18:39:31.872Z,5.70
2023-04-09T18:41:58.744Z,5.72
2023-04-09T18:44:25.988Z,6.15
2023-04-09T18:46:52.876Z,6.00
2023-04-09T18:49:19.649Z,6.18
2023-04-09T18:51:47.441Z,6.35
2023-04-09T18:54:14.275Z,6.88
2023-04-09T18:56:41.119Z,6.45
2023-04-09T18:59:07.910Z,6.03
2023-04-09T19:01:34.833Z,5.90
2023-04-09T19:04:01.807Z,6.47
2023-04-09T19:06:28.837Z,7.03
2023-04-09T19:08:58.317Z,7.00
2023-04-09T19:11:26.091Z,7.82
2023-04-09T19:13:53.007Z,7.25
2023-04-09T19:16:23.211Z,6.90
2023-04-09T19:18:50.104Z,6.88
2023-04-09T19:21:18.582Z,7.55
2023-04-09T19:23:45.909Z,6.93
2023-04-09T19:26:12.826Z,6.70
2023-04-09T19:28:39.629Z,6.93
2023-04-09T19:31:08.065Z,6.50
2023-04-09T19:33:34.915Z,6.20
2023-04-09T19:36:01.797Z,6.63
2023-04-09T19:38:28.675Z,6.50
2023-04-09T19:40:55.521Z,7.07
2023-04-09T19:43:22.308Z,6.93
2023-04-09T19:45:49.406Z,7.78
2023-04-09T19:48:16.335Z,9.10
2023-04-09T19:50:43.843Z,8.80
2023-04-09T19:53:10.933Z,8.75
2023-04-09T19:55:37.791Z,8.55
2023-04-09T19:58:05.541Z,9.38
2023-04-09T20:00:33.921Z,7.82
2023-04-09T20:03:01.281Z,8.30
2023-04-09T20:05:28.909Z,8.35
2023-04-09T20:07:55.841Z,8.25
2023-04-09T20:10:22.712Z,8.18
2023-04-09T20:12:50.233Z,8.32
2023-04-09T20:15:19.933Z,8.05
2023-04-09T20:17:48.307Z,8.40
2023-04-09T20:20:17.994Z,7.93
2023-04-09T20:22:47.526Z,7.90
2023-04-09T20:25:14.608Z,8.43
2023-04-09T20:27:41.490Z,8.13
2023-04-09T20:30:08.877Z,8.13
2023-04-09T20:32:37.100Z,7.78
2023-04-09T20:35:04.824Z,8.13
2023-04-09T20:37:31.658Z,8.05
2023-04-09T20:39:59.847Z,7.82
2023-04-09T20:42:27.287Z,8.43
2023-04-09T20:44:54.159Z,7.72
2023-04-09T20:47:22.070Z,7.60
2023-04-09T20:49:51.012Z,8.18
2023-04-09T20:52:17.952Z,8.05
2023-04-09T20:54:45.395Z,7.97
2023-04-09T20:57:13.899Z,8.25
2023-04-09T20:59:40.916Z,8.32
2023-04-09T21:02:08.846Z,8.80
2023-04-09T21:04:35.952Z,8.55
2023-04-09T21:07:02.711Z,9.02
2023-04-09T21:09:29.702Z,8.45
2023-04-09T21:11:56.565Z,8.90
2023-04-09T21:14:23.386Z,8.52
2023-04-09T21:16:52.284Z,8.35
2023-04-09T21:19:19.255Z,8.70
2023-04-09T21:21:46.313Z,8.45
2023-04-09T21:24:13.469Z,8.57
2023-04-09T21:26:51.077Z,8.57
2023-04-09T21:29:20.337Z,9.13
2023-04-09T21:31:48.760Z,8.55
2023-04-09T21:34:16.045Z,8.98
2023-04-09T21:36:45.235Z,8.75
2023-04-09T21:39:12.644Z,8.82
2023-04-09T21:41:39.751Z,9.52
2023-04-09T21:44:08.719Z,9.10
2023-04-09T21:46:37.063Z,8.60
2023-04-09T21:49:04.616Z,9.05
2023-04-09T21:51:32.118Z,9.20
2023-04-09T21:54:07.004Z,9.63
2023-04-09T21:56:34.812Z,9.63
2023-04-09T21:59:02.280Z,9.52
2023-04-09T22:01:31.378Z,8.93
2023-04-09T22:03:59.862Z,9.48
2023-04-09T22:06:28.771Z,9.80
2023-04-09T22:08:57.806Z,9.98
2023-04-09T22:11:27.781Z,9.65
2023-04-09T22:13:57.218Z,9.60
2023-04-09T22:16:25.464Z,9.98
2023-04-09T22:18:54.731Z,9.60
2023-04-09T22:21:22.396Z,9.88
2023-04-09T22:23:49.355Z,10.05
2023-04-09T22:26:16.140Z,9.40
2023-04-09T22:28:42.983Z,9.45
2023-04-09T22:31:09.925Z,9.60
2023-04-09T22:33:36.783Z,9.80
2023-04-09T22:36:03.688Z,10.55
2023-04-09T22:38:31.223Z,9.40
2023-04-09T22:40:58.038Z,10.77
2023-04-09T22:43:24.858Z,9.48
2023-04-09T22:45:54.289Z,9.70
2023-04-09T22:48:22.903Z,9.88
2023-04-09T22:50:50.543Z,9.73
2023-04-09T22:53:20.923Z,9.77
2023-04-09T22:55:51.586Z,9.50
2023-04-09T22:58:18.871Z,9.60
2023-04-09T23:00:47.093Z,10.40
2023-04-09T23:03:14.154Z,10.63
2023-04-09T23:05:41.496Z,10.80
2023-04-09T23:08:08.659Z,10.73
2023-04-09T23:10:36.220Z,10.55
2023-04-09T23:13:03.171Z,10.95
2023-04-09T23:15:30.086Z,11.07
2023-04-09T23:17:57.026Z,10.98
2023-04-09T23:20:24.193Z,10.50
2023-04-09T23:22:51.137Z,10.73
2023-04-09T23:25:18.680Z,11.00
2023-04-09T23:27:46.689Z,10.65
2023-04-09T23:30:17.008Z,10.85
2023-04-09T23:32:52.577Z,10.05
2023-04-09T23:35:20.989Z,11.13
2023-04-09T23:37:50.958Z,9.73
2023-04-09T23:40:20.736Z,11.18
2023-04-09T23:42:49.181Z,11.07
2023-04-09T23:45:16.312Z,11.70
2023-04-09T23:47:43.235Z,10.98
2023-04-09T23:50:10.476Z,11.25
2023-04-09T23:52:38.734Z,11.48
2023-04-09T23:55:09.702Z,11.50
2023-04-09T23:57:36.539Z,11.35
